Time;durP1;ratioP1;P1;durP2;ratioP2;P2;SDS_P1;SDS_P2;PMS_P1;PMS_P2;Temp;Humidity;BMP_temperature;BMP_pressure;BME280_temperature;BME280_humidity;BME280_pressure;Samples;Min_cycle;Max_cycle;Signal;HPM_P1;HPM_P2
2022/06/06 00:00:11;;;;;;;9.03;7.47;;;16.60;99.90;;;;;;5051424;28;20226;-47
2022/06/06 00:02:40;;;;;;;8.37;7.63;;;16.60;99.90;;;;;;5050602;28;20282;-48
2022/06/06 00:05:13;;;;;;;8.10;7.40;;;16.60;99.90;;;;;;5051626;28;20563;-44
2022/06/06 00:07:40;;;;;;;8.60;7.23;;;16.50;99.90;;;;;;5057342;28;20245;-44
2022/06/06 00:10:08;;;;;;;8.03;7.33;;;16.50;99.90;;;;;;5044732;28;20219;-41
2022/06/06 00:12:37;;;;;;;7.53;6.90;;;16.60;99.90;;;;;;5045237;28;20250;-44
2022/06/06 00:15:04;;;;;;;7.70;7.00;;;16.60;99.90;;;;;;5055368;28;20188;-42
2022/06/06 00:17:31;;;;;;;8.80;7.70;;;16.50;99.90;;;;;;5046907;28;20199;-42
2022/06/06 00:19:58;;;;;;;9.23;8.37;;;16.60;99.90;;;;;;5049846;28;20314;-41
2022/06/06 00:22:25;;;;;;;10.20;7.93;;;16.60;99.90;;;;;;5047010;28;20183;-43
2022/06/06 00:24:52;;;;;;;9.10;8.30;;;16.70;99.90;;;;;;5038505;28;20210;-42
2022/06/06 00:27:19;;;;;;;9.37;8.47;;;16.70;99.90;;;;;;5048585;28;20729;-41
2022/06/06 00:29:49;;;;;;;9.27;8.47;;;16.70;99.90;;;;;;5050503;28;20229;-41
2022/06/06 00:35:03;;;;;;;11.27;8.70;;;16.70;99.90;;;;;;5043151;28;20188;-42
2022/06/06 00:37:33;;;;;;;11.23;9.60;;;16.60;99.90;;;;;;5051044;28;20244;-43
2022/06/06 00:40:01;;;;;;;9.83;9.00;;;16.60;99.90;;;;;;5043907;28;20218;-43
2022/06/06 00:42:31;;;;;;;10.70;9.57;;;16.60;99.90;;;;;;5055693;28;20226;-44
2022/06/06 00:45:24;;;;;;;9.93;8.97;;;16.60;99.90;;;;;;5054920;28;20202;-43
2022/06/06 00:47:55;;;;;;;10.63;9.50;;;16.60;99.90;;;;;;5051214;28;20182;-41
2022/06/06 00:50:27;;;;;;;11.03;10.03;;;16.60;99.90;;;;;;5048403;28;20219;-44
2022/06/06 00:52:56;;;;;;;10.93;9.90;;;16.50;99.90;;;;;;5052727;28;20226;-42
2022/06/06 00:55:26;;;;;;;14.17;9.77;;;16.50;99.90;;;;;;5039870;28;20203;-42
2022/06/06 00:57:58;;;;;;;11.73;10.57;;;16.50;99.90;;;;;;5050424;28;20198;-42
2022/06/06 01:00:27;;;;;;;12.07;10.33;;;16.50;99.90;;;;;;5042085;28;20234;-41
2022/06/06 01:02:57;;;;;;;11.97;10.70;;;16.50;99.90;;;;;;5051870;28;20219;-41
2022/06/06 01:05:25;;;;;;;16.57;10.57;;;16.50;99.90;;;;;;5055223;28;20210;-41
2022/06/06 01:07:52;;;;;;;13.13;10.73;;;16.50;99.90;;;;;;5057116;28;20195;-41
2022/06/06 01:10:20;;;;;;;12.03;10.07;;;16.50;99.90;;;;;;5051703;28;20222;-45
2022/06/06 01:12:49;;;;;;;11.77;10.60;;;16.50;99.90;;;;;;5052747;28;20223;-46
2022/06/06 01:15:19;;;;;;;11.20;10.17;;;16.50;99.90;;;;;;5048699;28;20207;-45
2022/06/06 01:18:05;;;;;;;13.33;10.67;;;16.50;99.90;;;;;;5048009;28;20203;-44
2022/06/06 01:20:53;;;;;;;11.50;10.40;;;16.50;99.90;;;;;;5045753;28;20318;-45
2022/06/06 01:23:38;;;;;;;12.70;10.60;;;16.50;99.90;;;;;;5048593;28;20819;-44
2022/06/06 01:26:49;;;;;;;11.40;10.33;;;16.40;99.90;;;;;;5045310;28;20230;-43
2022/06/06 01:29:21;;;;;;;11.40;10.30;;;16.40;99.90;;;;;;4994445;28;20228;-44
2022/06/06 01:31:52;;;;;;;12.23;11.00;;;16.40;99.90;;;;;;4980493;28;20204;-44
2022/06/06 01:34:25;;;;;;;12.07;10.80;;;16.40;99.90;;;;;;5020851;28;20215;-41
2022/06/06 01:36:54;;;;;;;11.80;10.60;;;16.40;99.90;;;;;;5054966;28;20191;-42
2022/06/06 01:39:23;;;;;;;12.10;11.00;;;16.40;99.90;;;;;;5053198;28;20231;-42
2022/06/06 01:41:59;;;;;;;12.97;10.83;;;16.40;99.90;;;;;;5055326;28;20269;-42
2022/06/06 01:44:35;;;;;;;16.93;11.93;;;16.40;99.90;;;;;;5043810;28;20203;-42
2022/06/06 01:47:06;;;;;;;12.07;10.83;;;16.30;99.90;;;;;;5054432;28;20209;-41
2022/06/06 01:49:34;;;;;;;12.13;11.03;;;16.30;99.90;;;;;;5047285;28;20219;-42
2022/06/06 01:52:04;;;;;;;13.27;11.87;;;16.30;99.90;;;;;;5059050;28;20203;-43
2022/06/06 01:54:32;;;;;;;12.23;11.10;;;16.30;99.90;;;;;;5059040;28;20207;-42
2022/06/06 01:57:00;;;;;;;12.43;10.80;;;16.40;99.90;;;;;;5052838;28;20202;-45
2022/06/06 01:59:29;;;;;;;13.37;11.97;;;16.30;99.90;;;;;;5043730;28;20226;-42
2022/06/06 02:01:56;;;;;;;12.37;11.10;;;16.40;99.90;;;;;;5047006;28;20282;-43
2022/06/06 02:04:23;;;;;;;12.03;10.73;;;16.30;99.90;;;;;;5052335;28;20655;-41
2022/06/06 02:06:51;;;;;;;12.77;11.23;;;16.30;99.90;;;;;;5051086;28;20210;-41
2022/06/06 02:09:19;;;;;;;12.07;11.03;;;16.30;99.90;;;;;;5052915;28;20223;-42
2022/06/06 02:11:46;;;;;;;12.60;11.30;;;16.30;99.90;;;;;;5045462;28;20183;-44
2022/06/06 02:14:13;;;;;;;12.30;11.20;;;16.30;99.90;;;;;;5042547;28;20238;-41
2022/06/06 02:16:41;;;;;;;13.00;11.80;;;16.30;99.90;;;;;;5042957;28;20195;-41
2022/06/06 02:19:11;;;;;;;12.40;11.20;;;16.30;99.90;;;;;;5055419;28;20218;-41
2022/06/06 02:21:38;;;;;;;13.20;11.90;;;16.30;99.90;;;;;;5054931;28;20205;-43
2022/06/06 02:24:05;;;;;;;13.30;11.90;;;16.30;99.90;;;;;;5047686;28;20572;-42
2022/06/06 02:26:32;;;;;;;14.73;12.73;;;16.30;99.90;;;;;;5060542;28;20243;-42
2022/06/06 02:28:59;;;;;;;13.77;12.47;;;16.30;99.90;;;;;;5046348;28;20230;-43
2022/06/06 02:31:26;;;;;;;13.93;12.57;;;16.40;99.90;;;;;;5053763;28;20206;-43
2022/06/06 02:33:54;;;;;;;14.17;12.67;;;16.40;99.90;;;;;;5053310;28;20211;-41
2022/06/06 02:36:21;;;;;;;14.10;12.80;;;16.40;99.90;;;;;;5045452;28;20203;-42
2022/06/06 02:38:48;;;;;;;13.67;12.20;;;16.50;99.90;;;;;;5059738;28;20210;-41
2022/06/06 02:41:17;;;;;;;14.00;12.60;;;16.40;99.90;;;;;;5054803;28;20253;-43
2022/06/06 02:43:45;;;;;;;15.13;13.50;;;16.50;99.90;;;;;;5037158;28;20434;-42
2022/06/06 02:46:13;;;;;;;13.90;12.63;;;16.50;99.90;;;;;;5053176;28;20215;-42
2022/06/06 02:48:40;;;;;;;12.23;11.23;;;16.50;99.90;;;;;;5043537;28;20211;-46
2022/06/06 02:51:09;;;;;;;12.97;11.67;;;16.50;99.90;;;;;;5046276;28;20196;-43
2022/06/06 02:53:36;;;;;;;13.20;11.80;;;16.60;99.90;;;;;;5058146;28;20755;-44
2022/06/06 02:56:03;;;;;;;12.57;11.33;;;16.60;99.90;;;;;;5052095;28;20253;-41
2022/06/06 02:58:31;;;;;;;11.73;10.73;;;16.70;99.90;;;;;;5056732;28;20712;-41
2022/06/06 03:01:01;;;;;;;10.33;9.53;;;16.70;99.90;;;;;;5045004;28;20281;-44
2022/06/06 03:03:29;;;;;;;10.20;9.33;;;16.70;99.90;;;;;;5044605;28;20200;-43
2022/06/06 03:06:28;;;;;;;8.40;7.80;;;16.70;99.90;;;;;;5043717;28;20202;-41
2022/06/06 03:09:06;;;;;;;7.40;6.80;;;16.80;99.90;;;;;;5058385;28;20239;-42
2022/06/06 03:11:55;;;;;;;7.53;6.93;;;16.80;99.90;;;;;;5052192;28;20249;-43
2022/06/06 03:14:51;;;;;;;8.07;7.27;;;16.70;99.90;;;;;;5044026;28;20311;-43
2022/06/06 03:20:47;;;;;;;7.50;6.80;;;16.80;99.90;;;;;;5055591;28;20253;-42
2022/06/06 03:23:44;;;;;;;7.10;6.57;;;16.80;99.90;;;;;;5058652;28;20278;-42
2022/06/06 03:26:17;;;;;;;6.97;6.47;;;16.80;99.90;;;;;;5051049;28;20195;-43
2022/06/06 03:28:59;;;;;;;6.63;6.03;;;16.80;99.90;;;;;;5044096;28;20280;-42
2022/06/06 03:31:35;;;;;;;6.37;5.87;;;16.80;99.90;;;;;;5042694;28;20206;-42
2022/06/06 03:34:10;;;;;;;7.77;7.10;;;16.80;99.90;;;;;;5050004;28;20823;-44
2022/06/06 03:36:47;;;;;;;6.97;6.43;;;16.80;99.90;;;;;;5054669;28;20196;-44
2022/06/06 03:39:24;;;;;;;7.70;7.07;;;16.80;99.90;;;;;;5049078;28;20211;-43
2022/06/06 03:42:02;;;;;;;8.00;7.20;;;16.70;99.90;;;;;;5052635;28;20203;-42
2022/06/06 03:44:40;;;;;;;6.90;6.40;;;16.70;99.90;;;;;;5055837;28;20206;-42
2022/06/06 03:47:16;;;;;;;7.20;6.60;;;16.70;99.90;;;;;;5032622;28;20209;-42
2022/06/06 03:49:53;;;;;;;7.67;6.97;;;16.70;99.90;;;;;;5045767;28;20574;-44
2022/06/06 03:52:26;;;;;;;7.40;6.80;;;16.70;99.90;;;;;;5051266;28;20199;-42
2022/06/06 03:55:02;;;;;;;8.30;7.60;;;16.70;99.90;;;;;;5043348;28;20195;-42
2022/06/06 03:57:29;;;;;;;7.00;6.50;;;16.70;99.90;;;;;;5051787;28;20206;-41
2022/06/06 03:59:57;;;;;;;7.17;6.67;;;16.70;99.90;;;;;;5056288;28;20218;-43
2022/06/06 04:02:31;;;;;;;6.90;6.30;;;16.70;99.90;;;;;;5044382;28;20210;-42
2022/06/06 04:05:01;;;;;;;6.77;5.80;;;16.70;99.90;;;;;;5035270;28;20203;-42
2022/06/06 04:07:28;;;;;;;7.20;6.43;;;16.60;99.90;;;;;;5052049;28;20202;-42
2022/06/06 04:09:55;;;;;;;7.47;6.77;;;16.70;99.90;;;;;;5051528;28;20222;-41
2022/06/06 04:12:45;;;;;;;6.13;5.63;;;16.70;99.90;;;;;;5049925;28;20202;-42
2022/06/06 04:15:21;;;;;;;6.30;5.80;;;16.70;99.90;;;;;;5051715;28;20183;-43
2022/06/06 04:18:08;;;;;;;6.00;5.50;;;16.60;99.90;;;;;;5060881;28;20567;-46
2022/06/06 04:20:43;;;;;;;6.90;6.20;;;16.60;99.90;;;;;;5042632;28;20214;-43
2022/06/06 04:23:23;;;;;;;6.40;5.80;;;16.60;99.90;;;;;;5047742;28;20187;-43
2022/06/06 04:26:06;;;;;;;6.33;5.77;;;16.70;99.90;;;;;;5047029;28;20293;-47
2022/06/06 04:28:41;;;;;;;6.93;6.33;;;16.60;99.90;;;;;;5053438;28;20660;-43
2022/06/06 04:31:13;;;;;;;6.73;6.23;;;16.60;99.90;;;;;;5052923;28;20897;-42
2022/06/06 04:33:47;;;;;;;6.20;5.60;;;16.50;99.90;;;;;;5048646;28;20294;-45
2022/06/06 04:36:19;;;;;;;5.97;5.37;;;16.50;99.90;;;;;;5045863;28;21085;-42
2022/06/06 04:38:52;;;;;;;5.60;5.20;;;16.50;99.90;;;;;;5046727;28;20285;-45
2022/06/06 04:41:30;;;;;;;6.20;5.70;;;16.50;99.90;;;;;;5051278;28;20191;-42
2022/06/06 04:44:05;;;;;;;5.77;5.33;;;16.50;99.90;;;;;;5044064;28;20194;-43
2022/06/06 04:46:46;;;;;;;6.63;6.03;;;16.50;99.90;;;;;;5051759;28;20261;-44
2022/06/06 04:49:14;;;;;;;6.20;5.70;;;16.50;99.90;;;;;;5032530;28;20225;-44
2022/06/06 04:51:43;;;;;;;5.83;5.20;;;16.50;99.90;;;;;;5052630;28;20202;-42
2022/06/06 04:54:15;;;;;;;5.73;5.23;;;16.60;99.90;;;;;;5044179;28;20264;-42
2022/06/06 04:56:46;;;;;;;5.13;4.80;;;16.60;99.90;;;;;;5054376;28;20203;-42
2022/06/06 04:59:15;;;;;;;5.07;4.70;;;16.70;99.90;;;;;;5049868;28;20219;-44
2022/06/06 05:01:43;;;;;;;5.67;5.17;;;16.70;99.90;;;;;;5056736;28;20202;-43
2022/06/06 05:04:10;;;;;;;5.27;4.87;;;16.70;99.90;;;;;;5050859;28;20191;-43
2022/06/06 05:07:10;;;;;;;6.67;4.93;;;16.70;99.90;;;;;;5038419;28;20206;-45
2022/06/06 05:09:56;;;;;;;5.50;5.10;;;16.70;99.90;;;;;;5041834;28;20300;-45
2022/06/06 05:12:41;;;;;;;4.90;4.50;;;16.70;99.90;;;;;;5053523;28;20201;-48
2022/06/06 05:15:23;;;;;;;4.70;4.30;;;16.70;99.90;;;;;;5037932;28;20230;-43
2022/06/06 05:18:10;;;;;;;5.07;4.43;;;16.70;99.90;;;;;;5052800;28;20683;-43
2022/06/06 05:20:50;;;;;;;4.87;4.47;;;16.70;99.90;;;;;;5043826;28;20230;-45
2022/06/06 05:23:42;;;;;;;4.53;4.13;;;16.70;99.90;;;;;;5051919;28;20336;-42
2022/06/06 05:26:19;;;;;;;4.67;4.27;;;16.70;99.90;;;;;;5040248;28;20217;-44
2022/06/06 05:29:04;;;;;;;4.13;3.83;;;16.70;99.90;;;;;;5046505;28;20202;-43
2022/06/06 05:31:56;;;;;;;4.97;4.57;;;16.70;99.90;;;;;;5061435;28;20571;-42
2022/06/06 05:34:29;;;;;;;5.00;4.50;;;16.70;99.90;;;;;;5051382;28;20215;-42
2022/06/06 05:37:15;;;;;;;5.33;4.83;;;16.70;99.90;;;;;;5040793;28;20202;-47
2022/06/06 05:40:10;;;;;;;5.60;5.20;;;16.70;99.90;;;;;;5058044;28;20307;-46
2022/06/06 05:42:51;;;;;;;6.40;5.63;;;16.70;99.90;;;;;;5048438;28;20208;-42
2022/06/06 05:45:29;;;;;;;6.50;5.83;;;16.70;99.90;;;;;;5053328;28;20197;-46
2022/06/06 05:48:07;;;;;;;6.07;5.47;;;16.70;99.90;;;;;;5053060;28;20194;-42
2022/06/06 05:50:45;;;;;;;7.47;6.47;;;16.70;99.90;;;;;;5044636;28;20230;-42
2022/06/06 05:53:34;;;;;;;6.87;6.27;;;16.70;99.90;;;;;;5043396;28;21284;-42
2022/06/06 05:56:21;;;;;;;8.43;6.27;;;16.80;99.90;;;;;;5055293;28;20190;-42
2022/06/06 05:59:04;;;;;;;8.50;6.90;;;16.70;99.90;;;;;;5050306;28;20211;-44
2022/06/06 06:01:48;;;;;;;7.43;6.13;;;16.80;99.90;;;;;;5056831;28;20253;-42
2022/06/06 06:04:39;;;;;;;9.27;6.90;;;16.80;99.90;;;;;;5051211;28;20939;-42
2022/06/06 06:07:19;;;;;;;9.87;7.13;;;16.80;99.90;;;;;;5039941;28;20199;-44
2022/06/06 06:10:03;;;;;;;7.73;6.80;;;16.80;99.90;;;;;;5043970;28;20218;-42
2022/06/06 06:12:58;;;;;;;8.57;7.40;;;16.90;99.90;;;;;;5054063;28;20214;-42
2022/06/06 06:15:30;;;;;;;8.87;7.93;;;16.90;99.90;;;;;;5053522;28;20305;-45
2022/06/06 06:18:01;;;;;;;14.03;8.30;;;16.90;99.90;;;;;;5048631;28;20196;-42
2022/06/06 06:20:31;;;;;;;10.40;8.03;;;16.80;99.90;;;;;;5050602;28;20301;-42
2022/06/06 06:23:03;;;;;;;10.50;8.60;;;16.80;99.90;;;;;;5033923;28;20207;-44
2022/06/06 06:25:33;;;;;;;13.03;8.80;;;16.90;99.90;;;;;;5054254;28;20199;-42
2022/06/06 06:28:05;;;;;;;12.53;9.77;;;16.90;99.90;;;;;;5044286;28;20260;-43
2022/06/06 06:30:40;;;;;;;11.83;8.67;;;16.90;99.90;;;;;;5056634;28;20222;-42
2022/06/06 06:33:34;;;;;;;13.63;8.83;;;16.90;99.90;;;;;;5047007;28;20187;-44
2022/06/06 06:36:11;;;;;;;14.30;9.70;;;17.00;99.90;;;;;;5050082;28;20203;-44
2022/06/06 06:38:51;;;;;;;12.40;9.57;;;17.10;99.90;;;;;;5051558;28;20667;-44
2022/06/06 06:41:30;;;;;;;12.37;9.93;;;17.20;99.90;;;;;;5053703;28;20210;-43
2022/06/06 06:44:01;;;;;;;14.37;11.20;;;17.30;99.90;;;;;;5052066;28;20726;-43
2022/06/06 06:46:33;;;;;;;16.03;11.53;;;17.30;99.90;;;;;;5051789;28;20201;-42
2022/06/06 06:49:16;;;;;;;14.63;11.67;;;17.30;99.90;;;;;;5049363;28;20222;-48
2022/06/06 06:51:55;;;;;;;18.63;12.50;;;17.40;99.90;;;;;;5052897;28;20207;-42
2022/06/06 06:54:39;;;;;;;19.23;13.57;;;17.30;99.90;;;;;;5039510;28;20233;-44
2022/06/06 06:57:14;;;;;;;19.03;13.70;;;17.30;99.90;;;;;;5044909;28;20218;-42
2022/06/06 06:59:54;;;;;;;20.47;13.07;;;17.30;99.90;;;;;;5055911;28;20230;-44
2022/06/06 07:11:12;;;;;;;19.97;12.83;;;17.10;99.90;;;;;;5038391;28;20625;-42
2022/06/06 07:13:51;;;;;;;17.00;11.73;;;17.20;99.90;;;;;;5043485;28;20202;-42
2022/06/06 07:16:22;;;;;;;18.57;11.90;;;17.20;99.90;;;;;;5049712;28;20195;-43
2022/06/06 07:18:55;;;;;;;17.80;11.23;;;17.30;99.90;;;;;;5049488;28;20652;-45
2022/06/06 07:21:24;;;;;;;18.23;11.60;;;17.40;99.90;;;;;;5056980;28;20209;-45
2022/06/06 07:23:53;;;;;;;13.80;10.13;;;17.50;99.90;;;;;;5041366;28;20350;-43
2022/06/06 07:26:21;;;;;;;15.37;10.33;;;17.50;99.90;;;;;;5045919;28;20225;-43
2022/06/06 07:28:47;;;;;;;11.53;9.70;;;17.40;99.90;;;;;;5042624;28;22084;-47
2022/06/06 07:31:22;;;;;;;12.53;8.70;;;17.40;99.90;;;;;;5054018;28;20191;-43
2022/06/06 07:34:03;;;;;;;11.40;8.33;;;17.40;99.90;;;;;;5048705;28;20301;-44
2022/06/06 07:36:44;;;;;;;11.10;8.30;;;17.40;99.90;;;;;;5044664;28;20675;-44
2022/06/06 07:39:19;;;;;;;9.87;8.27;;;17.40;99.90;;;;;;5066673;28;20847;-45
2022/06/06 07:42:00;;;;;;;10.80;8.70;;;17.30;99.90;;;;;;5040590;28;20201;-44
2022/06/06 07:44:43;;;;;;;11.03;8.20;;;17.30;99.90;;;;;;5052495;28;20190;-43
2022/06/06 07:47:21;;;;;;;11.07;8.13;;;17.40;99.90;;;;;;5044221;28;20197;-42
2022/06/06 07:49:55;;;;;;;10.57;8.33;;;17.40;99.90;;;;;;5043573;28;20210;-43
2022/06/06 07:52:33;;;;;;;13.23;7.80;;;17.40;99.90;;;;;;5050644;28;20253;-43
2022/06/06 07:55:07;;;;;;;9.43;7.93;;;17.40;99.90;;;;;;5041494;28;20215;-46
2022/06/06 07:57:39;;;;;;;11.03;7.47;;;17.40;99.90;;;;;;5038698;28;20210;-45
2022/06/06 08:00:09;;;;;;;11.90;7.80;;;17.40;99.90;;;;;;5046219;28;20230;-42
2022/06/06 08:02:58;;;;;;;9.07;6.90;;;17.40;99.90;;;;;;5048630;28;20924;-42
2022/06/06 08:06:01;;;;;;;10.07;7.17;;;17.50;99.90;;;;;;5042222;28;20905;-44
2022/06/06 08:09:04;;;;;;;8.50;6.80;;;17.50;99.90;;;;;;5025040;28;20202;-45
2022/06/06 08:11:43;;;;;;;7.87;6.43;;;17.70;99.90;;;;;;5050483;28;20234;-44
2022/06/06 08:14:21;;;;;;;7.97;6.27;;;17.70;99.90;;;;;;5038007;28;20696;-44
2022/06/06 08:16:57;;;;;;;7.30;6.40;;;17.80;99.90;;;;;;5054083;28;20186;-43
2022/06/06 08:19:47;;;;;;;7.50;6.57;;;17.90;99.90;;;;;;5054239;28;20673;-42
2022/06/06 08:22:15;;;;;;;10.80;6.63;;;18.00;99.90;;;;;;5043841;28;20207;-42
2022/06/06 08:24:48;;;;;;;6.97;6.30;;;18.00;99.90;;;;;;5040893;28;20198;-43
2022/06/06 08:27:18;;;;;;;7.60;6.50;;;18.10;99.90;;;;;;5056501;28;20209;-42
2022/06/06 08:29:47;;;;;;;6.83;6.13;;;18.10;99.90;;;;;;5037225;28;20237;-43
2022/06/06 08:32:14;;;;;;;9.70;6.50;;;17.90;99.90;;;;;;5050976;28;20219;-47
2022/06/06 08:34:42;;;;;;;8.13;6.37;;;17.80;99.90;;;;;;5048449;28;20587;-42
2022/06/06 08:37:37;;;;;;;7.20;6.47;;;17.70;99.90;;;;;;5054296;28;20203;-42
2022/06/06 08:40:54;;;;;;;6.90;6.20;;;17.60;99.90;;;;;;5056833;28;20436;-44
2022/06/06 08:43:34;;;;;;;7.60;6.83;;;17.50;99.90;;;;;;5048005;28;20203;-42
2022/06/06 08:46:17;;;;;;;7.00;6.27;;;17.50;99.90;;;;;;5045716;28;20589;-42
2022/06/06 08:49:01;;;;;;;9.40;6.57;;;17.50;99.90;;;;;;5046375;28;20214;-42
2022/06/06 08:51:48;;;;;;;8.53;6.30;;;17.50;99.90;;;;;;5043981;28;20203;-42
2022/06/06 08:54:47;;;;;;;6.33;5.43;;;17.50;99.90;;;;;;5042544;28;20605;-43
2022/06/06 08:57:36;;;;;;;11.20;5.63;;;17.50;99.90;;;;;;5046820;28;20854;-42
2022/06/06 09:00:17;;;;;;;7.00;5.40;;;17.50;99.90;;;;;;5043693;28;20222;-44
2022/06/06 09:03:11;;;;;;;8.20;5.33;;;17.70;99.90;;;;;;5040777;28;20217;-44
2022/06/06 09:06:11;;;;;;;4.80;4.20;;;18.00;99.90;;;;;;5041373;28;20210;-42
2022/06/06 09:09:18;;;;;;;5.97;4.17;;;18.20;99.90;;;;;;5048294;28;20197;-42
2022/06/06 09:12:22;;;;;;;6.83;4.60;;;18.30;99.90;;;;;;5048795;28;20898;-42
2022/06/06 09:15:20;;;;;;;5.53;5.03;;;18.30;99.90;;;;;;5037533;28;20943;-42
2022/06/06 09:18:13;;;;;;;7.20;4.83;;;18.40;99.90;;;;;;5036860;28;20316;-46
2022/06/06 09:21:04;;;;;;;5.57;4.97;;;18.40;99.90;;;;;;5043753;28;20203;-42
2022/06/06 09:24:02;;;;;;;4.67;4.27;;;18.50;99.90;;;;;;5052915;28;20273;-42
2022/06/06 09:26:39;;;;;;;5.90;5.30;;;18.60;99.90;;;;;;5047139;28;20227;-42
2022/06/06 09:29:34;;;;;;;4.80;4.40;;;18.60;99.90;;;;;;5042717;28;20217;-42
2022/06/06 09:32:44;;;;;;;5.67;4.60;;;18.50;99.90;;;;;;5051405;28;20213;-42
2022/06/06 09:35:43;;;;;;;5.13;4.47;;;18.50;99.90;;;;;;5009186;28;20227;-42
2022/06/06 09:38:15;;;;;;;6.23;4.80;;;18.60;99.90;;;;;;5047195;28;20203;-46
2022/06/06 09:40:57;;;;;;;4.80;4.20;;;18.80;99.90;;;;;;5051828;28;20930;-43
2022/06/06 09:43:34;;;;;;;5.03;4.53;;;19.00;99.90;;;;;;5047953;28;20210;-43
2022/06/06 09:46:30;;;;;;;6.07;4.70;;;19.00;99.90;;;;;;5034877;28;20206;-43
2022/06/06 09:49:30;;;;;;;5.30;4.80;;;19.00;99.90;;;;;;5040370;28;20234;-42
2022/06/06 09:52:32;;;;;;;6.90;4.70;;;18.90;99.90;;;;;;5043716;28;20257;-42
2022/06/06 10:01:56;;;;;;;7.23;4.80;;;18.70;99.90;;;;;;5038933;28;20206;-42
2022/06/06 10:04:54;;;;;;;5.50;5.00;;;18.70;99.90;;;;;;5052120;28;20207;-41
2022/06/06 10:07:55;;;;;;;5.43;4.90;;;18.60;99.90;;;;;;5052026;28;20227;-42
2022/06/06 10:11:08;;;;;;;6.63;5.03;;;18.70;99.90;;;;;;5053091;28;20280;-42
2022/06/06 10:13:48;;;;;;;5.90;5.03;;;18.80;99.90;;;;;;5015014;28;20969;-43
2022/06/06 10:16:29;;;;;;;5.30;4.80;;;19.00;99.90;;;;;;5037981;28;20218;-42
2022/06/06 10:19:24;;;;;;;6.93;5.60;;;19.20;99.90;;;;;;5052270;28;20221;-45
2022/06/06 10:22:26;;;;;;;6.77;5.17;;;19.30;99.90;;;;;;5050367;28;20187;-42
2022/06/06 10:25:16;;;;;;;6.87;5.07;;;19.40;99.90;;;;;;5031663;28;20208;-42
2022/06/06 10:28:02;;;;;;;7.27;5.37;;;19.40;99.90;;;;;;5056828;28;20213;-44
2022/06/06 10:30:43;;;;;;;6.53;5.80;;;19.40;99.90;;;;;;5049806;28;20227;-42
2022/06/06 10:33:28;;;;;;;6.30;4.87;;;19.40;99.90;;;;;;5046131;28;20211;-46
2022/06/06 10:36:12;;;;;;;7.60;5.50;;;19.50;99.90;;;;;;5050054;28;20210;-42
2022/06/06 10:39:19;;;;;;;6.27;5.10;;;19.70;99.90;;;;;;5051817;28;20191;-43
2022/06/06 10:42:27;;;;;;;6.73;5.73;;;19.90;99.90;;;;;;5045570;28;20195;-44
2022/06/06 10:45:25;;;;;;;5.97;5.40;;;20.20;99.90;;;;;;5023069;28;20203;-42
2022/06/06 10:48:18;;;;;;;5.60;4.70;;;20.50;99.90;;;;;;5044202;28;20272;-62
2022/06/06 10:54:21;;;;;;;6.63;4.90;;;20.70;99.90;;;;;;5060183;28;20190;-41
2022/06/06 10:57:20;;;;;;;7.97;5.00;;;20.90;99.90;;;;;;5048261;28;20210;-45
2022/06/06 11:00:06;;;;;;;4.83;4.30;;;20.90;99.90;;;;;;5049242;28;20915;-41
2022/06/06 11:03:19;;;;;;;4.57;4.13;;;20.60;99.90;;;;;;5039376;28;20230;-46
2022/06/06 11:06:25;;;;;;;5.10;4.60;;;20.40;99.90;;;;;;5046751;28;20202;-42
2022/06/06 11:09:30;;;;;;;4.53;3.83;;;20.20;99.90;;;;;;5035044;28;20871;-43
2022/06/06 11:12:16;;;;;;;4.90;3.87;;;20.30;99.90;;;;;;5050017;28;20203;-43
2022/06/06 11:14:45;;;;;;;4.73;4.33;;;20.40;99.90;;;;;;5046782;28;20270;-44
2022/06/06 11:18:06;;;;;;;4.40;4.00;;;20.20;99.90;;;;;;5056754;28;20211;-43
2022/06/06 11:21:14;;;;;;;4.90;4.50;;;20.10;99.90;;;;;;5045864;28;20222;-46
2022/06/06 11:23:46;;;;;;;6.33;4.50;;;20.00;99.90;;;;;;5051398;28;20191;-47
2022/06/06 11:26:38;;;;;;;5.10;4.57;;;19.80;99.90;;;;;;5053558;28;20192;-42
2022/06/06 11:29:43;;;;;;;4.13;3.77;;;19.70;99.90;;;;;;5050249;28;20280;-43
2022/06/06 11:32:40;;;;;;;5.20;4.40;;;19.70;99.90;;;;;;5042495;28;20244;-42
2022/06/06 11:35:26;;;;;;;6.03;4.37;;;19.80;99.90;;;;;;5052536;28;20219;-41
2022/06/06 11:38:35;;;;;;;4.73;4.27;;;20.20;99.90;;;;;;5046307;28;20203;-40
2022/06/06 11:41:23;;;;;;;5.73;5.13;;;20.40;99.90;;;;;;5043696;28;20219;-42
2022/06/06 11:44:23;;;;;;;6.83;5.30;;;20.60;99.90;;;;;;5046052;28;20198;-44
2022/06/06 11:47:25;;;;;;;5.97;5.40;;;20.80;99.90;;;;;;5058400;28;20191;-41
2022/06/06 11:50:26;;;;;;;5.27;4.67;;;21.00;99.90;;;;;;5037277;28;20270;-41
2022/06/06 11:53:23;;;;;;;6.47;4.97;;;21.10;99.90;;;;;;5049581;28;20711;-45
2022/06/06 11:56:04;;;;;;;6.23;5.00;;;21.40;99.90;;;;;;5057555;28;20294;-45
2022/06/06 11:59:13;;;;;;;5.30;4.70;;;21.50;99.90;;;;;;5050601;28;20191;-44
2022/06/06 12:02:20;;;;;;;4.80;4.40;;;21.60;99.90;;;;;;5054014;28;20701;-42
2022/06/06 12:05:10;;;;;;;4.80;4.33;;;21.80;99.90;;;;;;5045989;28;20212;-44
2022/06/06 12:08:12;;;;;;;4.40;4.00;;;21.70;99.90;;;;;;5057317;28;20206;-47
2022/06/06 12:10:45;;;;;;;4.55;4.05;;;21.80;99.90;;;;;;5052204;28;20222;-47
2022/06/06 12:13:32;;;;;;;4.30;3.88;;;22.00;99.90;;;;;;5043617;28;20670;-43
2022/06/06 12:16:14;;;;;;;4.32;3.92;;;22.20;99.90;;;;;;5044506;28;20314;-46
2022/06/06 12:19:10;;;;;;;3.80;3.40;;;22.30;99.90;;;;;;5045393;28;20199;-46
2022/06/06 12:21:56;;;;;;;5.65;4.47;;;22.20;99.90;;;;;;5023222;28;20215;-42
2022/06/06 12:24:55;;;;;;;4.47;4.07;;;22.20;99.90;;;;;;5044307;28;20206;-43
2022/06/06 12:27:30;;;;;;;4.72;3.38;;;22.20;99.90;;;;;;5046079;28;20349;-44
2022/06/06 12:30:23;;;;;;;5.18;2.80;;;22.30;99.90;;;;;;5051641;28;20230;-45
2022/06/06 12:33:02;;;;;;;4.00;2.88;;;22.50;98.50;;;;;;5046398;28;20248;-46
2022/06/06 12:35:39;;;;;;;3.40;3.10;;;22.50;98.20;;;;;;5037936;28;20949;-43
2022/06/06 12:38:23;;;;;;;3.13;2.83;;;22.60;96.20;;;;;;5052783;28;20233;-47
2022/06/06 12:41:07;;;;;;;2.63;2.35;;;22.60;96.00;;;;;;5045878;28;20226;-45
2022/06/06 12:43:50;;;;;;;4.35;2.97;;;22.70;94.20;;;;;;5047628;28;22662;-44
2022/06/06 12:46:52;;;;;;;2.30;2.20;;;22.50;94.10;;;;;;5049877;28;20190;-44
2022/06/06 12:49:42;;;;;;;2.35;2.15;;;22.70;93.10;;;;;;5025451;28;20230;-43
2022/06/06 12:52:31;;;;;;;1.88;1.73;;;23.00;92.20;;;;;;5038265;28;20225;-43
2022/06/06 12:55:33;;;;;;;1.70;1.60;;;23.10;87.70;;;;;;5038720;28;20218;-48
2022/06/06 12:58:13;;;;;;;2.17;1.88;;;22.80;89.80;;;;;;5049889;28;20198;-44
2022/06/06 13:03:41;;;;;;;2.08;1.73;;;23.20;87.50;;;;;;5042925;28;20206;-43
2022/06/06 13:06:20;;;;;;;4.85;2.13;;;22.90;86.60;;;;;;5033751;28;20206;-46
2022/06/06 13:09:01;;;;;;;2.67;1.77;;;22.60;85.10;;;;;;5043689;28;20671;-44
2022/06/06 13:11:49;;;;;;;1.65;1.55;;;22.30;87.10;;;;;;5045477;28;20256;-43
2022/06/06 13:14:35;;;;;;;2.35;1.30;;;22.00;85.60;;;;;;5046550;28;20842;-44
2022/06/06 13:17:09;;;;;;;5.05;2.75;;;21.50;90.50;;;;;;5045997;28;20220;-45
2022/06/06 13:19:50;;;;;;;2.00;1.90;;;21.00;93.90;;;;;;5046319;28;20222;-43
2022/06/06 13:22:34;;;;;;;2.58;2.38;;;20.60;97.90;;;;;;5043912;28;20194;-42
2022/06/06 13:25:17;;;;;;;2.78;2.30;;;20.20;99.90;;;;;;5049173;28;20591;-44
2022/06/06 13:27:59;;;;;;;2.70;2.03;;;20.60;99.90;;;;;;5052923;28;20677;-43
2022/06/06 13:30:29;;;;;;;3.13;2.40;;;21.30;99.90;;;;;;5054949;28;20773;-44
2022/06/06 13:33:10;;;;;;;2.55;2.35;;;21.80;99.90;;;;;;5050570;28;20202;-45
2022/06/06 13:35:47;;;;;;;2.90;2.30;;;22.50;99.90;;;;;;5041455;28;20225;-44
2022/06/06 13:38:29;;;;;;;2.80;2.10;;;23.20;99.90;;;;;;5048643;28;20194;-43
2022/06/06 13:41:13;;;;;;;2.28;2.08;;;23.80;99.90;;;;;;5050328;28;20911;-48
2022/06/06 13:43:56;;;;;;;2.22;2.10;;;24.30;99.90;;;;;;5050586;28;20206;-44
2022/06/06 13:46:50;;;;;;;2.22;2.00;;;24.50;99.90;;;;;;5046316;28;20199;-46
2022/06/06 13:49:52;;;;;;;1.80;1.70;;;25.00;97.70;;;;;;5051586;28;20254;-46
2022/06/06 13:52:37;;;;;;;1.73;1.60;;;24.80;95.60;;;;;;5035422;28;20252;-43
2022/06/06 13:55:26;;;;;;;3.33;1.60;;;24.50;94.80;;;;;;5054896;28;20209;-43
2022/06/06 13:58:19;;;;;;;1.48;1.38;;;24.80;93.50;;;;;;5050589;28;20207;-45
2022/06/06 14:00:56;;;;;;;1.55;1.45;;;25.10;90.10;;;;;;5050894;28;20219;-43
2022/06/06 14:03:39;;;;;;;1.70;1.60;;;25.30;90.40;;;;;;5049387;28;20199;-44
2022/06/06 14:06:30;;;;;;;1.40;1.30;;;25.70;85.60;;;;;;5042287;28;20202;-43
2022/06/06 14:08:58;;;;;;;1.88;1.50;;;25.50;81.20;;;;;;5041355;28;20218;-44
2022/06/06 14:11:42;;;;;;;3.42;1.55;;;25.70;84.00;;;;;;5052032;28;20200;-43
2022/06/06 14:14:14;;;;;;;1.42;1.40;;;25.60;80.10;;;;;;5049791;28;20214;-43
2022/06/06 14:16:46;;;;;;;1.90;1.35;;;25.80;80.70;;;;;;5052580;28;20223;-45